Kenesaw, Nebraska
Current Conditions -  °F | °C
As of 7:53 AM on Thursday 29 Jan 2015 (Local Time) from KHSI Reporting Station
Overcast Overcast  
Wind Chill: 24°   Ceiling: 3400
Heat Index: 36°   Visibility: 10mi
Dew Point: 24°   Wind: 24mph
Humidity: 62%   Direction: 330°NNW
Pressure: 30.36"   Gusts: 32mph
Location:  40.62°N, 98.66°W
Report Text: KHSI 291353Z AUTO 33021G28KT 10SM OVC034 02/M04 A3036 RMK AO2 PK WND 32028/1350 SLP290 T00221044
Loading
Personal Weather Stations






























Interactive Weather Map New forecast layout! Learn more

10-Day Weather Forecast

Advertisements
Track Severe Weather on mobile